sensor_id;sensor_type;location;lat;lon;timestamp;P1;durP1;ratioP1;P2;durP2;ratioP2
75016;SDS011;63577;39.766;2.720;2024-01-11T00:00:05;55.00;;;20.40;;
75016;SDS011;63577;39.766;2.720;2024-01-11T00:02:31;21.60;;;10.00;;
75016;SDS011;63577;39.766;2.720;2024-01-11T00:04:57;10.40;;;5.30;;
75016;SDS011;63577;39.766;2.720;2024-01-11T00:07:22;44.30;;;16.80;;
75016;SDS011;63577;39.766;2.720;2024-01-11T00:09:48;21.20;;;9.60;;
75016;SDS011;63577;39.766;2.720;2024-01-11T00:12:13;11.30;;;5.30;;
75016;SDS011;63577;39.766;2.720;2024-01-11T00:14:38;9.40;;;4.40;;
75016;SDS011;63577;39.766;2.720;2024-01-11T00:17:04;8.00;;;4.30;;
75016;SDS011;63577;39.766;2.720;2024-01-11T00:19:29;9.20;;;3.90;;
75016;SDS011;63577;39.766;2.720;2024-01-11T00:21:54;7.90;;;4.20;;
75016;SDS011;63577;39.766;2.720;2024-01-11T00:24:20;6.10;;;3.10;;
75016;SDS011;63577;39.766;2.720;2024-01-11T00:26:45;5.80;;;3.10;;
75016;SDS011;63577;39.766;2.720;2024-01-11T00:29:10;6.00;;;3.30;;
75016;SDS011;63577;39.766;2.720;2024-01-11T00:31:36;8.60;;;4.50;;
75016;SDS011;63577;39.766;2.720;2024-01-11T00:34:03;9.10;;;4.60;;
75016;SDS011;63577;39.766;2.720;2024-01-11T00:36:28;7.40;;;3.70;;
75016;SDS011;63577;39.766;2.720;2024-01-11T00:38:54;6.30;;;3.30;;
75016;SDS011;63577;39.766;2.720;2024-01-11T00:41:19;5.80;;;3.00;;
75016;SDS011;63577;39.766;2.720;2024-01-11T00:43:44;4.90;;;2.40;;
75016;SDS011;63577;39.766;2.720;2024-01-11T00:46:10;4.70;;;2.50;;
75016;SDS011;63577;39.766;2.720;2024-01-11T00:48:35;5.60;;;2.70;;
75016;SDS011;63577;39.766;2.720;2024-01-11T00:51:01;5.40;;;2.50;;
75016;SDS011;63577;39.766;2.720;2024-01-11T00:53:26;5.60;;;3.10;;
75016;SDS011;63577;39.766;2.720;2024-01-11T00:55:56;8.20;;;4.80;;
75016;SDS011;63577;39.766;2.720;2024-01-11T00:58:21;8.70;;;5.00;;
75016;SDS011;63577;39.766;2.720;2024-01-11T01:00:47;11.90;;;7.50;;
75016;SDS011;63577;39.766;2.720;2024-01-11T01:03:12;14.10;;;8.80;;
75016;SDS011;63577;39.766;2.720;2024-01-11T01:05:37;11.80;;;7.40;;
75016;SDS011;63577;39.766;2.720;2024-01-11T01:08:03;9.90;;;6.10;;
75016;SDS011;63577;39.766;2.720;2024-01-11T01:10:28;9.10;;;5.20;;
75016;SDS011;63577;39.766;2.720;2024-01-11T01:12:54;9.30;;;4.30;;
75016;SDS011;63577;39.766;2.720;2024-01-11T01:15:19;7.60;;;3.80;;
75016;SDS011;63577;39.766;2.720;2024-01-11T01:17:44;5.60;;;2.90;;
75016;SDS011;63577;39.766;2.720;2024-01-11T01:20:10;4.60;;;2.30;;
75016;SDS011;63577;39.766;2.720;2024-01-11T01:22:35;5.10;;;2.70;;
75016;SDS011;63577;39.766;2.720;2024-01-11T01:25:01;5.60;;;2.70;;
75016;SDS011;63577;39.766;2.720;2024-01-11T01:27:26;6.90;;;3.90;;
75016;SDS011;63577;39.766;2.720;2024-01-11T01:29:52;7.20;;;4.20;;
75016;SDS011;63577;39.766;2.720;2024-01-11T01:32:17;10.60;;;5.50;;
75016;SDS011;63577;39.766;2.720;2024-01-11T01:34:42;12.50;;;7.20;;
75016;SDS011;63577;39.766;2.720;2024-01-11T01:37:08;7.70;;;4.80;;
75016;SDS011;63577;39.766;2.720;2024-01-11T01:39:36;7.40;;;3.50;;
75016;SDS011;63577;39.766;2.720;2024-01-11T01:42:02;5.20;;;2.60;;
75016;SDS011;63577;39.766;2.720;2024-01-11T01:44:27;7.50;;;3.00;;
75016;SDS011;63577;39.766;2.720;2024-01-11T01:46:53;6.60;;;3.70;;
75016;SDS011;63577;39.766;2.720;2024-01-11T01:49:19;6.30;;;3.10;;
75016;SDS011;63577;39.766;2.720;2024-01-11T01:51:47;4.90;;;3.00;;
75016;SDS011;63577;39.766;2.720;2024-01-11T01:54:12;6.50;;;3.10;;
75016;SDS011;63577;39.766;2.720;2024-01-11T01:56:38;6.00;;;3.20;;
75016;SDS011;63577;39.766;2.720;2024-01-11T01:59:03;4.90;;;2.70;;
75016;SDS011;63577;39.766;2.720;2024-01-11T02:01:29;6.60;;;3.60;;
75016;SDS011;63577;39.766;2.720;2024-01-11T02:03:55;9.10;;;5.10;;
75016;SDS011;63577;39.766;2.720;2024-01-11T02:06:24;5.80;;;3.20;;
75016;SDS011;63577;39.766;2.720;2024-01-11T02:08:51;6.30;;;3.40;;
75016;SDS011;63577;39.766;2.720;2024-01-11T02:11:19;6.50;;;3.50;;
75016;SDS011;63577;39.766;2.720;2024-01-11T02:13:45;5.20;;;3.10;;
75016;SDS011;63577;39.766;2.720;2024-01-11T02:16:11;8.20;;;4.60;;
75016;SDS011;63577;39.766;2.720;2024-01-11T02:18:37;7.20;;;3.60;;
75016;SDS011;63577;39.766;2.720;2024-01-11T02:21:02;8.80;;;5.00;;
75016;SDS011;63577;39.766;2.720;2024-01-11T02:23:30;14.20;;;7.80;;
75016;SDS011;63577;39.766;2.720;2024-01-11T02:25:55;13.60;;;8.00;;
75016;SDS011;63577;39.766;2.720;2024-01-11T02:28:21;12.80;;;7.70;;
75016;SDS011;63577;39.766;2.720;2024-01-11T02:30:46;9.80;;;5.90;;
75016;SDS011;63577;39.766;2.720;2024-01-11T02:33:11;7.20;;;3.90;;
75016;SDS011;63577;39.766;2.720;2024-01-11T02:35:40;6.70;;;3.40;;
75016;SDS011;63577;39.766;2.720;2024-01-11T02:38:08;5.90;;;3.00;;
75016;SDS011;63577;39.766;2.720;2024-01-11T02:40:33;7.20;;;2.80;;
75016;SDS011;63577;39.766;2.720;2024-01-11T02:43:06;5.70;;;2.50;;
75016;SDS011;63577;39.766;2.720;2024-01-11T02:45:32;8.70;;;5.40;;
75016;SDS011;63577;39.766;2.720;2024-01-11T02:47:57;9.60;;;6.50;;
75016;SDS011;63577;39.766;2.720;2024-01-11T02:50:22;12.40;;;7.10;;
75016;SDS011;63577;39.766;2.720;2024-01-11T02:52:48;9.50;;;5.90;;
75016;SDS011;63577;39.766;2.720;2024-01-11T02:55:13;11.40;;;6.30;;
75016;SDS011;63577;39.766;2.720;2024-01-11T02:57:39;11.60;;;6.40;;
75016;SDS011;63577;39.766;2.720;2024-01-11T03:00:04;10.00;;;6.00;;
75016;SDS011;63577;39.766;2.720;2024-01-11T03:02:30;11.90;;;6.60;;
75016;SDS011;63577;39.766;2.720;2024-01-11T03:04:56;8.80;;;4.60;;
75016;SDS011;63577;39.766;2.720;2024-01-11T03:07:22;7.20;;;4.00;;
75016;SDS011;63577;39.766;2.720;2024-01-11T03:09:47;7.30;;;4.20;;
75016;SDS011;63577;39.766;2.720;2024-01-11T03:12:12;7.40;;;4.00;;
75016;SDS011;63577;39.766;2.720;2024-01-11T03:14:38;5.70;;;2.90;;
75016;SDS011;63577;39.766;2.720;2024-01-11T03:17:03;5.60;;;2.50;;
75016;SDS011;63577;39.766;2.720;2024-01-11T03:19:29;4.10;;;1.80;;
75016;SDS011;63577;39.766;2.720;2024-01-11T03:21:55;4.20;;;2.10;;
75016;SDS011;63577;39.766;2.720;2024-01-11T03:24:20;4.60;;;2.30;;
75016;SDS011;63577;39.766;2.720;2024-01-11T03:26:47;6.20;;;2.60;;
75016;SDS011;63577;39.766;2.720;2024-01-11T03:29:12;7.60;;;3.80;;
75016;SDS011;63577;39.766;2.720;2024-01-11T03:31:37;8.80;;;4.20;;
75016;SDS011;63577;39.766;2.720;2024-01-11T03:34:06;5.70;;;3.30;;
75016;SDS011;63577;39.766;2.720;2024-01-11T03:36:32;8.20;;;4.10;;
75016;SDS011;63577;39.766;2.720;2024-01-11T03:38:57;19.30;;;10.40;;
75016;SDS011;63577;39.766;2.720;2024-01-11T03:41:23;9.10;;;5.00;;
75016;SDS011;63577;39.766;2.720;2024-01-11T03:43:49;8.50;;;4.20;;
75016;SDS011;63577;39.766;2.720;2024-01-11T03:46:15;5.50;;;2.50;;
75016;SDS011;63577;39.766;2.720;2024-01-11T03:48:40;4.70;;;2.50;;
75016;SDS011;63577;39.766;2.720;2024-01-11T03:51:06;5.40;;;2.40;;
75016;SDS011;63577;39.766;2.720;2024-01-11T03:53:35;4.60;;;2.30;;
75016;SDS011;63577;39.766;2.720;2024-01-11T03:56:01;7.60;;;1.70;;
75016;SDS011;63577;39.766;2.720;2024-01-11T03:58:27;3.50;;;1.30;;
75016;SDS011;63577;39.766;2.720;2024-01-11T04:00:52;2.30;;;0.80;;
75016;SDS011;63577;39.766;2.720;2024-01-11T04:03:17;3.20;;;0.80;;
75016;SDS011;63577;39.766;2.720;2024-01-11T04:05:43;3.10;;;0.90;;
75016;SDS011;63577;39.766;2.720;2024-01-11T04:08:08;2.40;;;0.80;;
75016;SDS011;63577;39.766;2.720;2024-01-11T04:10:33;3.10;;;0.90;;
75016;SDS011;63577;39.766;2.720;2024-01-11T04:12:59;3.30;;;1.30;;
75016;SDS011;63577;39.766;2.720;2024-01-11T04:15:25;3.10;;;1.30;;
75016;SDS011;63577;39.766;2.720;2024-01-11T04:17:50;3.50;;;1.20;;
75016;SDS011;63577;39.766;2.720;2024-01-11T04:20:15;3.80;;;1.10;;
75016;SDS011;63577;39.766;2.720;2024-01-11T04:22:41;3.00;;;1.00;;
75016;SDS011;63577;39.766;2.720;2024-01-11T04:25:06;2.80;;;0.70;;
75016;SDS011;63577;39.766;2.720;2024-01-11T04:27:32;2.30;;;0.60;;
75016;SDS011;63577;39.766;2.720;2024-01-11T04:29:57;2.00;;;0.70;;
75016;SDS011;63577;39.766;2.720;2024-01-11T04:32:22;3.50;;;0.80;;
75016;SDS011;63577;39.766;2.720;2024-01-11T04:34:48;2.10;;;0.70;;
75016;SDS011;63577;39.766;2.720;2024-01-11T04:37:13;2.60;;;0.80;;
75016;SDS011;63577;39.766;2.720;2024-01-11T04:39:38;2.70;;;1.00;;
75016;SDS011;63577;39.766;2.720;2024-01-11T04:42:04;4.20;;;1.00;;
75016;SDS011;63577;39.766;2.720;2024-01-11T04:44:29;4.70;;;1.30;;
75016;SDS011;63577;39.766;2.720;2024-01-11T04:46:55;3.70;;;1.20;;
75016;SDS011;63577;39.766;2.720;2024-01-11T04:49:20;3.80;;;1.30;;
75016;SDS011;63577;39.766;2.720;2024-01-11T04:51:45;2.80;;;1.00;;
75016;SDS011;63577;39.766;2.720;2024-01-11T04:54:11;4.30;;;1.00;;
75016;SDS011;63577;39.766;2.720;2024-01-11T04:56:36;2.30;;;0.70;;
75016;SDS011;63577;39.766;2.720;2024-01-11T04:59:01;2.60;;;0.70;;
75016;SDS011;63577;39.766;2.720;2024-01-11T05:01:27;2.60;;;0.60;;
75016;SDS011;63577;39.766;2.720;2024-01-11T05:03:52;2.00;;;0.70;;
75016;SDS011;63577;39.766;2.720;2024-01-11T05:06:18;4.30;;;0.70;;
75016;SDS011;63577;39.766;2.720;2024-01-11T05:08:46;1.40;;;0.50;;
75016;SDS011;63577;39.766;2.720;2024-01-11T05:11:15;2.10;;;0.60;;
75016;SDS011;63577;39.766;2.720;2024-01-11T05:13:41;2.20;;;0.50;;
75016;SDS011;63577;39.766;2.720;2024-01-11T05:16:06;3.60;;;0.60;;
75016;SDS011;63577;39.766;2.720;2024-01-11T05:18:32;1.50;;;0.50;;
75016;SDS011;63577;39.766;2.720;2024-01-11T05:20:57;1.80;;;0.60;;
75016;SDS011;63577;39.766;2.720;2024-01-11T05:23:22;1.50;;;0.50;;
75016;SDS011;63577;39.766;2.720;2024-01-11T05:25:48;2.20;;;0.80;;
75016;SDS011;63577;39.766;2.720;2024-01-11T05:28:13;3.60;;;0.80;;
75016;SDS011;63577;39.766;2.720;2024-01-11T05:30:38;2.70;;;0.80;;
75016;SDS011;63577;39.766;2.720;2024-01-11T05:33:04;2.70;;;0.80;;
75016;SDS011;63577;39.766;2.720;2024-01-11T05:35:29;3.20;;;0.70;;
75016;SDS011;63577;39.766;2.720;2024-01-11T05:37:55;2.30;;;0.60;;
75016;SDS011;63577;39.766;2.720;2024-01-11T05:40:20;2.00;;;0.60;;
75016;SDS011;63577;39.766;2.720;2024-01-11T05:42:46;2.80;;;0.90;;
75016;SDS011;63577;39.766;2.720;2024-01-11T05:45:12;3.50;;;0.80;;
75016;SDS011;63577;39.766;2.720;2024-01-11T05:47:37;4.50;;;2.00;;
75016;SDS011;63577;39.766;2.720;2024-01-11T05:50:02;4.10;;;1.60;;
75016;SDS011;63577;39.766;2.720;2024-01-11T05:52:28;3.10;;;1.00;;
75016;SDS011;63577;39.766;2.720;2024-01-11T05:54:53;3.60;;;0.90;;
75016;SDS011;63577;39.766;2.720;2024-01-11T05:57:19;3.10;;;0.90;;
75016;SDS011;63577;39.766;2.720;2024-01-11T05:59:44;3.80;;;1.00;;
75016;SDS011;63577;39.766;2.720;2024-01-11T06:02:13;4.30;;;1.00;;
75016;SDS011;63577;39.766;2.720;2024-01-11T06:04:39;2.00;;;0.70;;
75016;SDS011;63577;39.766;2.720;2024-01-11T06:07:04;2.30;;;0.60;;
75016;SDS011;63577;39.766;2.720;2024-01-11T06:09:30;6.70;;;0.70;;
75016;SDS011;63577;39.766;2.720;2024-01-11T06:11:55;2.70;;;0.50;;
75016;SDS011;63577;39.766;2.720;2024-01-11T06:14:20;1.60;;;0.50;;
75016;SDS011;63577;39.766;2.720;2024-01-11T06:16:46;1.60;;;0.50;;
75016;SDS011;63577;39.766;2.720;2024-01-11T06:19:11;1.90;;;0.50;;
75016;SDS011;63577;39.766;2.720;2024-01-11T06:21:36;3.10;;;0.70;;
75016;SDS011;63577;39.766;2.720;2024-01-11T06:24:02;2.50;;;0.80;;
75016;SDS011;63577;39.766;2.720;2024-01-11T06:26:28;2.60;;;0.70;;
75016;SDS011;63577;39.766;2.720;2024-01-11T06:28:54;2.60;;;0.80;;
75016;SDS011;63577;39.766;2.720;2024-01-11T06:31:19;16.10;;;8.80;;
75016;SDS011;63577;39.766;2.720;2024-01-11T06:33:44;11.30;;;6.40;;
75016;SDS011;63577;39.766;2.720;2024-01-11T06:36:10;5.60;;;2.60;;
75016;SDS011;63577;39.766;2.720;2024-01-11T06:38:35;3.50;;;1.20;;
75016;SDS011;63577;39.766;2.720;2024-01-11T06:41:00;2.30;;;0.80;;
75016;SDS011;63577;39.766;2.720;2024-01-11T06:43:26;2.70;;;0.80;;
75016;SDS011;63577;39.766;2.720;2024-01-11T06:45:51;3.20;;;1.00;;
75016;SDS011;63577;39.766;2.720;2024-01-11T06:48:18;3.60;;;0.80;;
75016;SDS011;63577;39.766;2.720;2024-01-11T06:50:43;1.80;;;0.50;;
75016;SDS011;63577;39.766;2.720;2024-01-11T06:53:09;2.60;;;0.60;;
75016;SDS011;63577;39.766;2.720;2024-01-11T06:55:34;3.30;;;0.70;;
75016;SDS011;63577;39.766;2.720;2024-01-11T06:58:00;2.40;;;0.70;;
75016;SDS011;63577;39.766;2.720;2024-01-11T07:00:27;2.50;;;0.80;;
75016;SDS011;63577;39.766;2.720;2024-01-11T07:02:53;1.70;;;0.50;;
75016;SDS011;63577;39.766;2.720;2024-01-11T07:05:19;2.20;;;0.90;;
75016;SDS011;63577;39.766;2.720;2024-01-11T07:07:44;2.10;;;0.60;;
75016;SDS011;63577;39.766;2.720;2024-01-11T07:10:09;3.10;;;1.00;;
75016;SDS011;63577;39.766;2.720;2024-01-11T07:12:35;3.80;;;1.30;;
75016;SDS011;63577;39.766;2.720;2024-01-11T07:15:03;2.80;;;1.00;;
75016;SDS011;63577;39.766;2.720;2024-01-11T07:17:30;2.60;;;0.80;;
75016;SDS011;63577;39.766;2.720;2024-01-11T07:19:55;1.80;;;0.60;;
75016;SDS011;63577;39.766;2.720;2024-01-11T07:22:20;2.60;;;0.80;;
75016;SDS011;63577;39.766;2.720;2024-01-11T07:24:46;2.60;;;0.90;;
75016;SDS011;63577;39.766;2.720;2024-01-11T07:27:11;3.80;;;1.20;;
75016;SDS011;63577;39.766;2.720;2024-01-11T07:29:36;5.70;;;1.30;;
75016;SDS011;63577;39.766;2.720;2024-01-11T07:32:02;3.90;;;1.20;;
75016;SDS011;63577;39.766;2.720;2024-01-11T07:34:29;3.30;;;1.00;;
75016;SDS011;63577;39.766;2.720;2024-01-11T07:36:54;4.70;;;2.80;;
75016;SDS011;63577;39.766;2.720;2024-01-11T07:39:20;5.80;;;3.60;;
75016;SDS011;63577;39.766;2.720;2024-01-11T07:41:46;6.10;;;3.30;;
75016;SDS011;63577;39.766;2.720;2024-01-11T07:44:11;70.80;;;41.50;;
75016;SDS011;63577;39.766;2.720;2024-01-11T07:46:37;34.80;;;21.90;;
75016;SDS011;63577;39.766;2.720;2024-01-11T07:49:02;19.40;;;14.40;;
75016;SDS011;63577;39.766;2.720;2024-01-11T07:51:28;12.30;;;8.10;;
75016;SDS011;63577;39.766;2.720;2024-01-11T07:53:53;10.20;;;6.10;;
75016;SDS011;63577;39.766;2.720;2024-01-11T07:56:19;8.70;;;5.70;;
75016;SDS011;63577;39.766;2.720;2024-01-11T07:58:44;9.30;;;5.80;;
75016;SDS011;63577;39.766;2.720;2024-01-11T08:01:09;7.30;;;3.80;;
75016;SDS011;63577;39.766;2.720;2024-01-11T08:03:35;7.80;;;4.50;;
75016;SDS011;63577;39.766;2.720;2024-01-11T08:06:00;4.10;;;1.90;;
75016;SDS011;63577;39.766;2.720;2024-01-11T08:08:26;3.30;;;1.20;;
75016;SDS011;63577;39.766;2.720;2024-01-11T08:10:51;2.90;;;1.20;;
75016;SDS011;63577;39.766;2.720;2024-01-11T08:13:17;2.80;;;1.20;;
75016;SDS011;63577;39.766;2.720;2024-01-11T08:15:43;2.50;;;0.90;;
75016;SDS011;63577;39.766;2.720;2024-01-11T08:18:08;2.90;;;1.10;;
75016;SDS011;63577;39.766;2.720;2024-01-11T08:20:34;6.00;;;3.20;;
75016;SDS011;63577;39.766;2.720;2024-01-11T08:23:00;8.60;;;4.90;;
75016;SDS011;63577;39.766;2.720;2024-01-11T08:25:25;8.60;;;5.50;;
75016;SDS011;63577;39.766;2.720;2024-01-11T08:27:51;5.20;;;3.00;;
75016;SDS011;63577;39.766;2.720;2024-01-11T08:30:16;5.90;;;3.50;;
75016;SDS011;63577;39.766;2.720;2024-01-11T08:32:41;6.00;;;3.10;;
75016;SDS011;63577;39.766;2.720;2024-01-11T08:35:11;7.00;;;3.40;;
75016;SDS011;63577;39.766;2.720;2024-01-11T08:37:37;8.30;;;4.10;;
75016;SDS011;63577;39.766;2.720;2024-01-11T08:40:02;5.70;;;3.00;;
75016;SDS011;63577;39.766;2.720;2024-01-11T08:42:30;5.20;;;2.50;;
75016;SDS011;63577;39.766;2.720;2024-01-11T08:44:55;4.00;;;2.10;;
75016;SDS011;63577;39.766;2.720;2024-01-11T08:47:20;4.70;;;2.10;;
75016;SDS011;63577;39.766;2.720;2024-01-11T08:49:46;4.00;;;2.00;;
75016;SDS011;63577;39.766;2.720;2024-01-11T08:52:11;5.20;;;2.60;;
75016;SDS011;63577;39.766;2.720;2024-01-11T08:54:36;4.20;;;2.10;;
75016;SDS011;63577;39.766;2.720;2024-01-11T08:57:02;4.00;;;2.10;;
75016;SDS011;63577;39.766;2.720;2024-01-11T08:59:28;6.10;;;3.20;;
75016;SDS011;63577;39.766;2.720;2024-01-11T09:01:53;6.20;;;3.60;;
75016;SDS011;63577;39.766;2.720;2024-01-11T09:04:19;5.20;;;3.50;;
75016;SDS011;63577;39.766;2.720;2024-01-11T09:06:44;4.70;;;2.60;;
75016;SDS011;63577;39.766;2.720;2024-01-11T09:09:10;5.30;;;2.70;;
75016;SDS011;63577;39.766;2.720;2024-01-11T09:11:36;5.20;;;3.20;;
75016;SDS011;63577;39.766;2.720;2024-01-11T09:14:01;5.90;;;3.50;;
75016;SDS011;63577;39.766;2.720;2024-01-11T09:16:28;7.80;;;4.80;;
75016;SDS011;63577;39.766;2.720;2024-01-11T09:18:53;12.50;;;6.60;;
75016;SDS011;63577;39.766;2.720;2024-01-11T09:21:19;20.70;;;9.80;;
75016;SDS011;63577;39.766;2.720;2024-01-11T09:23:44;17.70;;;9.00;;
75016;SDS011;63577;39.766;2.720;2024-01-11T09:26:10;13.10;;;8.00;;
75016;SDS011;63577;39.766;2.720;2024-01-11T09:28:35;11.60;;;6.80;;
75016;SDS011;63577;39.766;2.720;2024-01-11T09:31:00;15.40;;;8.20;;
75016;SDS011;63577;39.766;2.720;2024-01-11T09:33:27;27.30;;;12.20;;
75016;SDS011;63577;39.766;2.720;2024-01-11T09:35:53;19.10;;;9.00;;
75016;SDS011;63577;39.766;2.720;2024-01-11T09:38:18;12.20;;;6.20;;
75016;SDS011;63577;39.766;2.720;2024-01-11T09:40:43;12.40;;;6.70;;
75016;SDS011;63577;39.766;2.720;2024-01-11T09:43:09;11.00;;;6.10;;
75016;SDS011;63577;39.766;2.720;2024-01-11T09:45:34;8.10;;;5.10;;
75016;SDS011;63577;39.766;2.720;2024-01-11T09:48:01;5.90;;;3.60;;
75016;SDS011;63577;39.766;2.720;2024-01-11T09:50:27;7.80;;;3.90;;
75016;SDS011;63577;39.766;2.720;2024-01-11T09:52:53;7.20;;;4.30;;
75016;SDS011;63577;39.766;2.720;2024-01-11T09:55:18;8.70;;;4.40;;
75016;SDS011;63577;39.766;2.720;2024-01-11T09:57:45;6.10;;;3.00;;
75016;SDS011;63577;39.766;2.720;2024-01-11T10:00:16;41.50;;;20.60;;
75016;SDS011;63577;39.766;2.720;2024-01-11T10:02:43;17.60;;;10.10;;
75016;SDS011;63577;39.766;2.720;2024-01-11T10:05:09;9.80;;;5.60;;
75016;SDS011;63577;39.766;2.720;2024-01-11T10:07:34;75.40;;;34.80;;
75016;SDS011;63577;39.766;2.720;2024-01-11T10:10:00;19.00;;;11.30;;
75016;SDS011;63577;39.766;2.720;2024-01-11T10:12:27;12.00;;;6.70;;
75016;SDS011;63577;39.766;2.720;2024-01-11T10:14:52;13.00;;;8.40;;
75016;SDS011;63577;39.766;2.720;2024-01-11T10:17:18;13.70;;;8.40;;
75016;SDS011;63577;39.766;2.720;2024-01-11T10:19:43;11.00;;;7.30;;
75016;SDS011;63577;39.766;2.720;2024-01-11T10:22:09;9.90;;;6.70;;
75016;SDS011;63577;39.766;2.720;2024-01-11T10:24:38;11.60;;;6.50;;
75016;SDS011;63577;39.766;2.720;2024-01-11T10:27:04;10.00;;;6.10;;
75016;SDS011;63577;39.766;2.720;2024-01-11T10:29:31;9.50;;;5.50;;
75016;SDS011;63577;39.766;2.720;2024-01-11T10:31:57;9.80;;;5.90;;
75016;SDS011;63577;39.766;2.720;2024-01-11T10:34:25;9.50;;;5.70;;
75016;SDS011;63577;39.766;2.720;2024-01-11T10:36:51;11.00;;;6.00;;
75016;SDS011;63577;39.766;2.720;2024-01-11T10:39:17;10.20;;;6.20;;
75016;SDS011;63577;39.766;2.720;2024-01-11T10:41:45;9.50;;;6.20;;
75016;SDS011;63577;39.766;2.720;2024-01-11T10:46:38;15.20;;;7.90;;
75016;SDS011;63577;39.766;2.720;2024-01-11T10:49:03;18.90;;;9.30;;
75016;SDS011;63577;39.766;2.720;2024-01-11T10:51:29;13.20;;;7.90;;
75016;SDS011;63577;39.766;2.720;2024-01-11T10:53:57;18.40;;;10.60;;
75016;SDS011;63577;39.766;2.720;2024-01-11T10:56:23;12.50;;;8.10;;
75016;SDS011;63577;39.766;2.720;2024-01-11T10:58:49;47.20;;;23.40;;
75016;SDS011;63577;39.766;2.720;2024-01-11T11:01:15;32.30;;;19.60;;
75016;SDS011;63577;39.766;2.720;2024-01-11T11:03:41;18.70;;;11.00;;
75016;SDS011;63577;39.766;2.720;2024-01-11T11:06:09;19.00;;;12.00;;
75016;SDS011;63577;39.766;2.720;2024-01-11T11:08:35;16.70;;;10.80;;
75016;SDS011;63577;39.766;2.720;2024-01-11T11:11:02;15.50;;;10.20;;
75016;SDS011;63577;39.766;2.720;2024-01-11T11:13:32;15.60;;;10.90;;
75016;SDS011;63577;39.766;2.720;2024-01-11T11:15:57;11.40;;;6.80;;
75016;SDS011;63577;39.766;2.720;2024-01-11T11:18:23;10.60;;;6.00;;
75016;SDS011;63577;39.766;2.720;2024-01-11T11:20:49;8.80;;;3.90;;
75016;SDS011;63577;39.766;2.720;2024-01-11T11:23:16;11.40;;;5.70;;
75016;SDS011;63577;39.766;2.720;2024-01-11T11:25:45;9.80;;;4.10;;
75016;SDS011;63577;39.766;2.720;2024-01-11T11:28:11;8.60;;;4.10;;
75016;SDS011;63577;39.766;2.720;2024-01-11T11:30:37;9.00;;;4.90;;
75016;SDS011;63577;39.766;2.720;2024-01-11T11:33:18;7.00;;;3.80;;
75016;SDS011;63577;39.766;2.720;2024-01-11T11:35:47;8.20;;;3.50;;
75016;SDS011;63577;39.766;2.720;2024-01-11T11:38:20;5.60;;;2.50;;
75016;SDS011;63577;39.766;2.720;2024-01-11T11:40:46;6.30;;;2.70;;
75016;SDS011;63577;39.766;2.720;2024-01-11T11:43:15;7.40;;;3.00;;
75016;SDS011;63577;39.766;2.720;2024-01-11T11:45:41;8.40;;;3.80;;
75016;SDS011;63577;39.766;2.720;2024-01-11T11:51:00;8.60;;;4.00;;
75016;SDS011;63577;39.766;2.720;2024-01-11T11:53:26;9.00;;;4.70;;
75016;SDS011;63577;39.766;2.720;2024-01-11T11:55:51;10.30;;;5.80;;
75016;SDS011;63577;39.766;2.720;2024-01-11T11:58:17;26.60;;;19.30;;
75016;SDS011;63577;39.766;2.720;2024-01-11T12:00:42;25.40;;;19.30;;
75016;SDS011;63577;39.766;2.720;2024-01-11T12:03:07;16.40;;;10.70;;
75016;SDS011;63577;39.766;2.720;2024-01-11T12:05:33;8.70;;;4.50;;
75016;SDS011;63577;39.766;2.720;2024-01-11T12:07:58;8.00;;;3.30;;
75016;SDS011;63577;39.766;2.720;2024-01-11T12:10:24;7.00;;;3.10;;
75016;SDS011;63577;39.766;2.720;2024-01-11T12:12:49;6.70;;;3.10;;
75016;SDS011;63577;39.766;2.720;2024-01-11T12:15:15;6.90;;;2.80;;
75016;SDS011;63577;39.766;2.720;2024-01-11T12:17:41;7.00;;;3.20;;
75016;SDS011;63577;39.766;2.720;2024-01-11T12:20:07;12.20;;;7.40;;
75016;SDS011;63577;39.766;2.720;2024-01-11T12:22:33;14.40;;;9.20;;
75016;SDS011;63577;39.766;2.720;2024-01-11T12:24:58;32.00;;;15.20;;
75016;SDS011;63577;39.766;2.720;2024-01-11T12:27:24;16.40;;;9.10;;
75016;SDS011;63577;39.766;2.720;2024-01-11T12:29:49;12.40;;;8.00;;
75016;SDS011;63577;39.766;2.720;2024-01-11T12:32:15;9.10;;;5.40;;
75016;SDS011;63577;39.766;2.720;2024-01-11T12:34:42;8.50;;;5.30;;
75016;SDS011;63577;39.766;2.720;2024-01-11T12:37:07;10.50;;;5.90;;
75016;SDS011;63577;39.766;2.720;2024-01-11T12:39:36;7.60;;;3.60;;
75016;SDS011;63577;39.766;2.720;2024-01-11T12:42:03;10.60;;;4.80;;
75016;SDS011;63577;39.766;2.720;2024-01-11T12:44:28;8.00;;;3.50;;
75016;SDS011;63577;39.766;2.720;2024-01-11T12:46:54;6.20;;;2.40;;
75016;SDS011;63577;39.766;2.720;2024-01-11T12:49:19;11.70;;;7.80;;
75016;SDS011;63577;39.766;2.720;2024-01-11T12:51:45;11.70;;;6.70;;
75016;SDS011;63577;39.766;2.720;2024-01-11T12:54:13;12.20;;;6.10;;
75016;SDS011;63577;39.766;2.720;2024-01-11T12:56:42;15.90;;;10.80;;
75016;SDS011;63577;39.766;2.720;2024-01-11T12:59:08;28.60;;;12.40;;
75016;SDS011;63577;39.766;2.720;2024-01-11T13:01:35;23.10;;;14.20;;
75016;SDS011;63577;39.766;2.720;2024-01-11T13:04:00;24.70;;;14.40;;
75016;SDS011;63577;39.766;2.720;2024-01-11T13:06:28;20.00;;;11.70;;
75016;SDS011;63577;39.766;2.720;2024-01-11T13:08:55;12.90;;;9.60;;
75016;SDS011;63577;39.766;2.720;2024-01-11T13:11:20;12.90;;;6.60;;
75016;SDS011;63577;39.766;2.720;2024-01-11T13:13:46;8.00;;;4.80;;
75016;SDS011;63577;39.766;2.720;2024-01-11T13:16:12;9.30;;;3.10;;
75016;SDS011;63577;39.766;2.720;2024-01-11T13:18:39;8.10;;;5.50;;
75016;SDS011;63577;39.766;2.720;2024-01-11T13:21:05;9.90;;;3.20;;
75016;SDS011;63577;39.766;2.720;2024-01-11T13:23:31;11.40;;;4.30;;
75016;SDS011;63577;39.766;2.720;2024-01-11T13:25:57;7.80;;;2.60;;
75016;SDS011;63577;39.766;2.720;2024-01-11T13:28:22;10.60;;;4.30;;
75016;SDS011;63577;39.766;2.720;2024-01-11T13:30:48;7.00;;;2.00;;
75016;SDS011;63577;39.766;2.720;2024-01-11T13:33:16;9.70;;;4.70;;
75016;SDS011;63577;39.766;2.720;2024-01-11T13:35:42;10.00;;;4.10;;
75016;SDS011;63577;39.766;2.720;2024-01-11T13:38:08;6.50;;;2.30;;
75016;SDS011;63577;39.766;2.720;2024-01-11T13:40:34;11.30;;;5.40;;
75016;SDS011;63577;39.766;2.720;2024-01-11T13:42:59;9.30;;;3.40;;
75016;SDS011;63577;39.766;2.720;2024-01-11T13:45:25;6.20;;;2.60;;
75016;SDS011;63577;39.766;2.720;2024-01-11T13:47:51;7.20;;;2.40;;
75016;SDS011;63577;39.766;2.720;2024-01-11T13:50:19;8.70;;;2.00;;
75016;SDS011;63577;39.766;2.720;2024-01-11T13:52:44;8.40;;;2.20;;
75016;SDS011;63577;39.766;2.720;2024-01-11T13:55:10;15.30;;;4.90;;
75016;SDS011;63577;39.766;2.720;2024-01-11T13:57:36;12.00;;;4.40;;
75016;SDS011;63577;39.766;2.720;2024-01-11T14:00:02;10.10;;;6.40;;
75016;SDS011;63577;39.766;2.720;2024-01-11T14:02:28;11.50;;;8.30;;
75016;SDS011;63577;39.766;2.720;2024-01-11T14:04:53;7.90;;;3.60;;
75016;SDS011;63577;39.766;2.720;2024-01-11T14:07:19;10.00;;;4.20;;
75016;SDS011;63577;39.766;2.720;2024-01-11T14:09:44;6.80;;;2.10;;
75016;SDS011;63577;39.766;2.720;2024-01-11T14:12:09;8.90;;;2.70;;
75016;SDS011;63577;39.766;2.720;2024-01-11T14:14:35;12.30;;;3.10;;
75016;SDS011;63577;39.766;2.720;2024-01-11T14:17:01;6.80;;;2.40;;
75016;SDS011;63577;39.766;2.720;2024-01-11T14:19:26;13.60;;;4.00;;
75016;SDS011;63577;39.766;2.720;2024-01-11T14:21:53;7.90;;;2.60;;
75016;SDS011;63577;39.766;2.720;2024-01-11T14:24:18;7.70;;;2.60;;
75016;SDS011;63577;39.766;2.720;2024-01-11T14:26:44;8.40;;;2.80;;
75016;SDS011;63577;39.766;2.720;2024-01-11T14:29:09;9.90;;;2.40;;
75016;SDS011;63577;39.766;2.720;2024-01-11T14:31:36;8.50;;;2.60;;
75016;SDS011;63577;39.766;2.720;2024-01-11T14:34:02;7.50;;;2.20;;
75016;SDS011;63577;39.766;2.720;2024-01-11T14:36:28;8.50;;;3.50;;
75016;SDS011;63577;39.766;2.720;2024-01-11T14:38:53;6.40;;;1.60;;